Terminal Aerodrome Forecast
Issued by NWS Sioux Falls, SD

Home | Current Version | Previous Version | Text Only | Print | Product List | Glossary On
Versions: 1 2 3 4 5 6 7 8 9 10 11 12 13 14 15 16
000
FTUS43 KFSD 241100 AAA
TAFFSD
TAF AMD
KFSD 241100Z 2411/2506 01006KT P6SM BKN008
     FM241500 02006KT P6SM SCT020
     FM241600 03005KT P6SM SCT035
     FM242000 09005KT P6SM SCT050
     FM250000 13006KT P6SM SKC=

USA.gov is the U.S. government's official web portal to all federal, state and local government web resources and services.